sensor_id;sensor_type;location;lat;lon;timestamp;temperature;humidity
20315;DHT22;10315;50.958;13.080;2023-03-05T00:02:51;1.00;99.90
20315;DHT22;10315;50.958;13.080;2023-03-05T00:12:52;1.00;99.90
20315;DHT22;10315;50.958;13.080;2023-03-05T00:22:55;0.90;99.90
20315;DHT22;10315;50.958;13.080;2023-03-05T00:32:57;0.90;99.90
20315;DHT22;10315;50.958;13.080;2023-03-05T00:43:00;0.80;99.90
20315;DHT22;10315;50.958;13.080;2023-03-05T00:53:02;0.80;99.90
20315;DHT22;10315;50.958;13.080;2023-03-05T01:03:05;0.80;99.90
20315;DHT22;10315;50.958;13.080;2023-03-05T01:13:07;0.70;99.90
20315;DHT22;10315;50.958;13.080;2023-03-05T01:23:10;0.60;99.90
20315;DHT22;10315;50.958;13.080;2023-03-05T01:33:12;0.40;99.90
20315;DHT22;10315;50.958;13.080;2023-03-05T01:43:26;0.40;99.90
20315;DHT22;10315;50.958;13.080;2023-03-05T01:53:28;0.30;99.90
20315;DHT22;10315;50.958;13.080;2023-03-05T02:03:32;0.40;99.90
20315;DHT22;10315;50.958;13.080;2023-03-05T02:13:35;0.40;99.90
20315;DHT22;10315;50.958;13.080;2023-03-05T02:23:41;0.40;99.90
20315;DHT22;10315;50.958;13.080;2023-03-05T02:33:43;0.30;99.90
20315;DHT22;10315;50.958;13.080;2023-03-05T02:43:46;0.20;99.90
20315;DHT22;10315;50.958;13.080;2023-03-05T02:53:48;0.20;99.90
20315;DHT22;10315;50.958;13.080;2023-03-05T03:03:51;0.30;99.90
20315;DHT22;10315;50.958;13.080;2023-03-05T03:13:52;0.20;99.90
20315;DHT22;10315;50.958;13.080;2023-03-05T03:23:55;0.20;99.90
20315;DHT22;10315;50.958;13.080;2023-03-05T03:33:57;0.10;99.90
20315;DHT22;10315;50.958;13.080;2023-03-05T03:44:00;0.10;99.90
20315;DHT22;10315;50.958;13.080;2023-03-05T03:54:02;0.10;99.90
20315;DHT22;10315;50.958;13.080;2023-03-05T04:04:06;0.00;99.90
20315;DHT22;10315;50.958;13.080;2023-03-05T04:14:08;0.00;99.90
20315;DHT22;10315;50.958;13.080;2023-03-05T04:24:11;-0.10;99.90
20315;DHT22;10315;50.958;13.080;2023-03-05T04:34:12;-0.20;99.90
20315;DHT22;10315;50.958;13.080;2023-03-05T04:44:15;-0.20;99.90
20315;DHT22;10315;50.958;13.080;2023-03-05T04:54:18;-0.20;99.90
20315;DHT22;10315;50.958;13.080;2023-03-05T05:04:21;-0.30;99.90
20315;DHT22;10315;50.958;13.080;2023-03-05T05:14:24;-0.30;99.90
20315;DHT22;10315;50.958;13.080;2023-03-05T05:24:27;-0.30;99.90
20315;DHT22;10315;50.958;13.080;2023-03-05T05:34:29;-0.20;99.90
20315;DHT22;10315;50.958;13.080;2023-03-05T05:44:32;-0.20;99.90
20315;DHT22;10315;50.958;13.080;2023-03-05T05:54:34;-0.10;99.90
20315;DHT22;10315;50.958;13.080;2023-03-05T06:04:37;-0.10;99.90
20315;DHT22;10315;50.958;13.080;2023-03-05T06:14:39;0.10;99.90
20315;DHT22;10315;50.958;13.080;2023-03-05T06:24:42;0.20;99.90
20315;DHT22;10315;50.958;13.080;2023-03-05T06:34:44;0.20;99.90
20315;DHT22;10315;50.958;13.080;2023-03-05T06:44:47;0.30;99.90
20315;DHT22;10315;50.958;13.080;2023-03-05T06:54:48;0.40;99.90
20315;DHT22;10315;50.958;13.080;2023-03-05T07:04:51;0.60;99.90
20315;DHT22;10315;50.958;13.080;2023-03-05T07:14:53;0.70;99.90
20315;DHT22;10315;50.958;13.080;2023-03-05T07:25:14;0.70;99.90
20315;DHT22;10315;50.958;13.080;2023-03-05T07:35:18;1.00;99.90
20315;DHT22;10315;50.958;13.080;2023-03-05T07:45:21;1.00;99.90
20315;DHT22;10315;50.958;13.080;2023-03-05T07:55:23;1.20;99.90
20315;DHT22;10315;50.958;13.080;2023-03-05T08:05:26;1.30;99.90
20315;DHT22;10315;50.958;13.080;2023-03-05T08:15:28;1.10;99.90
20315;DHT22;10315;50.958;13.080;2023-03-05T08:25:32;1.10;99.90
20315;DHT22;10315;50.958;13.080;2023-03-05T08:35:33;1.40;99.90
20315;DHT22;10315;50.958;13.080;2023-03-05T08:45:37;1.80;99.90
20315;DHT22;10315;50.958;13.080;2023-03-05T08:55:39;1.40;99.90
20315;DHT22;10315;50.958;13.080;2023-03-05T09:05:45;1.70;99.90
20315;DHT22;10315;50.958;13.080;2023-03-05T09:15:53;1.40;99.90
20315;DHT22;10315;50.958;13.080;2023-03-05T09:25:56;1.50;99.90
20315;DHT22;10315;50.958;13.080;2023-03-05T09:35:58;1.80;99.90
20315;DHT22;10315;50.958;13.080;2023-03-05T09:46:26;1.30;99.90
20315;DHT22;10315;50.958;13.080;2023-03-05T09:56:31;1.60;99.90
20315;DHT22;10315;50.958;13.080;2023-03-05T10:06:39;4.10;99.90
20315;DHT22;10315;50.958;13.080;2023-03-05T10:17:11;4.70;99.90
20315;DHT22;10315;50.958;13.080;2023-03-05T10:27:38;2.80;99.90
20315;DHT22;10315;50.958;13.080;2023-03-05T10:38:07;2.40;99.90
20315;DHT22;10315;50.958;13.080;2023-03-05T10:48:24;2.90;99.90
20315;DHT22;10315;50.958;13.080;2023-03-05T10:58:26;3.00;99.90
20315;DHT22;10315;50.958;13.080;2023-03-05T11:08:31;3.00;99.90
20315;DHT22;10315;50.958;13.080;2023-03-05T11:18:33;2.80;99.90
20315;DHT22;10315;50.958;13.080;2023-03-05T11:28:38;2.70;99.90
20315;DHT22;10315;50.958;13.080;2023-03-05T11:38:51;2.40;99.90
20315;DHT22;10315;50.958;13.080;2023-03-05T11:48:55;2.20;99.90
20315;DHT22;10315;50.958;13.080;2023-03-05T11:59:01;2.00;99.90
20315;DHT22;10315;50.958;13.080;2023-03-05T12:09:17;1.80;99.90
20315;DHT22;10315;50.958;13.080;2023-03-05T12:19:37;2.40;99.90
20315;DHT22;10315;50.958;13.080;2023-03-05T12:29:44;2.30;99.90
20315;DHT22;10315;50.958;13.080;2023-03-05T12:39:49;2.20;99.90
20315;DHT22;10315;50.958;13.080;2023-03-05T12:49:58;3.10;99.90
20315;DHT22;10315;50.958;13.080;2023-03-05T13:00:03;3.40;99.90
20315;DHT22;10315;50.958;13.080;2023-03-05T13:10:23;3.50;99.90
20315;DHT22;10315;50.958;13.080;2023-03-05T13:20:28;3.00;99.90
20315;DHT22;10315;50.958;13.080;2023-03-05T13:30:32;2.70;99.90
20315;DHT22;10315;50.958;13.080;2023-03-05T13:40:34;2.30;99.90
20315;DHT22;10315;50.958;13.080;2023-03-05T13:50:38;2.40;99.90
20315;DHT22;10315;50.958;13.080;2023-03-05T14:00:40;2.60;99.90
20315;DHT22;10315;50.958;13.080;2023-03-05T14:10:43;2.40;99.90
20315;DHT22;10315;50.958;13.080;2023-03-05T14:21:00;2.30;99.90
20315;DHT22;10315;50.958;13.080;2023-03-05T14:31:03;2.00;99.90
20315;DHT22;10315;50.958;13.080;2023-03-05T14:41:20;1.90;99.90
20315;DHT22;10315;50.958;13.080;2023-03-05T14:51:26;2.30;99.90
20315;DHT22;10315;50.958;13.080;2023-03-05T15:01:28;2.20;99.90
20315;DHT22;10315;50.958;13.080;2023-03-05T15:11:31;2.00;99.90
20315;DHT22;10315;50.958;13.080;2023-03-05T15:21:33;1.90;99.90
20315;DHT22;10315;50.958;13.080;2023-03-05T15:31:36;1.70;99.90
20315;DHT22;10315;50.958;13.080;2023-03-05T15:41:39;1.70;99.90
20315;DHT22;10315;50.958;13.080;2023-03-05T15:51:42;1.70;99.90
20315;DHT22;10315;50.958;13.080;2023-03-05T16:01:49;1.70;99.90
20315;DHT22;10315;50.958;13.080;2023-03-05T16:11:55;1.70;99.90
20315;DHT22;10315;50.958;13.080;2023-03-05T16:21:56;1.70;99.90
20315;DHT22;10315;50.958;13.080;2023-03-05T16:32:00;1.60;99.90
20315;DHT22;10315;50.958;13.080;2023-03-05T16:42:03;1.50;99.90
20315;DHT22;10315;50.958;13.080;2023-03-05T16:52:08;1.50;99.90
20315;DHT22;10315;50.958;13.080;2023-03-05T17:02:11;1.50;99.90
20315;DHT22;10315;50.958;13.080;2023-03-05T17:12:15;1.50;99.90
20315;DHT22;10315;50.958;13.080;2023-03-05T17:22:17;1.30;99.90
20315;DHT22;10315;50.958;13.080;2023-03-05T17:32:20;1.20;99.90
20315;DHT22;10315;50.958;13.080;2023-03-05T17:42:22;1.20;99.90
20315;DHT22;10315;50.958;13.080;2023-03-05T17:52:25;1.20;99.90
20315;DHT22;10315;50.958;13.080;2023-03-05T18:02:27;1.10;99.90
20315;DHT22;10315;50.958;13.080;2023-03-05T18:12:30;1.10;99.90
20315;DHT22;10315;50.958;13.080;2023-03-05T18:22:31;1.20;99.90
20315;DHT22;10315;50.958;13.080;2023-03-05T18:32:35;1.20;99.90
20315;DHT22;10315;50.958;13.080;2023-03-05T18:42:36;1.20;99.90
20315;DHT22;10315;50.958;13.080;2023-03-05T18:52:39;1.20;99.90
20315;DHT22;10315;50.958;13.080;2023-03-05T19:02:41;1.20;99.90
20315;DHT22;10315;50.958;13.080;2023-03-05T19:12:44;1.20;99.90
20315;DHT22;10315;50.958;13.080;2023-03-05T19:22:50;1.10;99.90
20315;DHT22;10315;50.958;13.080;2023-03-05T19:32:53;0.90;99.90
20315;DHT22;10315;50.958;13.080;2023-03-05T19:42:55;0.90;99.90
20315;DHT22;10315;50.958;13.080;2023-03-05T19:52:58;1.00;99.90
20315;DHT22;10315;50.958;13.080;2023-03-05T20:03:00;0.90;99.90
20315;DHT22;10315;50.958;13.080;2023-03-05T20:13:03;1.00;99.90
20315;DHT22;10315;50.958;13.080;2023-03-05T20:23:05;1.00;99.90
20315;DHT22;10315;50.958;13.080;2023-03-05T20:33:08;0.80;99.90
20315;DHT22;10315;50.958;13.080;2023-03-05T20:43:09;0.80;99.90
20315;DHT22;10315;50.958;13.080;2023-03-05T20:53:13;0.60;99.90
20315;DHT22;10315;50.958;13.080;2023-03-05T21:03:14;0.50;99.90
20315;DHT22;10315;50.958;13.080;2023-03-05T21:13:17;0.50;99.90
20315;DHT22;10315;50.958;13.080;2023-03-05T21:23:21;0.40;99.90
20315;DHT22;10315;50.958;13.080;2023-03-05T21:33:27;0.30;99.90
20315;DHT22;10315;50.958;13.080;2023-03-05T21:43:30;0.30;99.90
20315;DHT22;10315;50.958;13.080;2023-03-05T21:53:33;0.40;99.90
20315;DHT22;10315;50.958;13.080;2023-03-05T22:03:35;0.30;99.90
20315;DHT22;10315;50.958;13.080;2023-03-05T22:13:38;0.30;99.90
20315;DHT22;10315;50.958;13.080;2023-03-05T22:23:40;0.50;99.90
20315;DHT22;10315;50.958;13.080;2023-03-05T22:33:42;0.60;99.90
20315;DHT22;10315;50.958;13.080;2023-03-05T22:43:45;0.60;99.90
20315;DHT22;10315;50.958;13.080;2023-03-05T22:53:48;0.50;99.90
20315;DHT22;10315;50.958;13.080;2023-03-05T23:03:52;0.50;99.90
20315;DHT22;10315;50.958;13.080;2023-03-05T23:14:13;0.40;99.90
20315;DHT22;10315;50.958;13.080;2023-03-05T23:24:15;0.40;99.90
20315;DHT22;10315;50.958;13.080;2023-03-05T23:34:24;0.30;99.90
20315;DHT22;10315;50.958;13.080;2023-03-05T23:44:25;0.30;99.90
20315;DHT22;10315;50.958;13.080;2023-03-05T23:54:28;0.30;99.90
